createdAt,value
2023-03-26T00:02:07.353Z,48.60
2023-03-26T00:04:37.018Z,62.60
2023-03-26T00:07:05.370Z,54.60
2023-03-26T00:09:34.012Z,62.60
2023-03-26T00:12:02.155Z,63.60
2023-03-26T00:14:30.588Z,57.20
2023-03-26T00:16:58.766Z,53.60
2023-03-26T00:19:28.113Z,63.00
2023-03-26T00:21:57.855Z,52.40
2023-03-26T00:24:30.085Z,62.20
2023-03-26T00:26:58.278Z,64.00
2023-03-26T00:29:28.351Z,59.80
2023-03-26T00:31:56.476Z,58.60
2023-03-26T00:34:25.064Z,61.40
2023-03-26T00:36:54.821Z,58.80
2023-03-26T00:39:24.660Z,60.20
2023-03-26T00:41:54.577Z,59.00
2023-03-26T00:44:23.248Z,48.60
2023-03-26T00:46:51.384Z,65.60
2023-03-26T00:49:19.564Z,69.40
2023-03-26T00:51:47.772Z,58.00
2023-03-26T00:54:16.049Z,63.80
2023-03-26T00:56:45.903Z,64.00
2023-03-26T00:59:14.016Z,59.60
2023-03-26T01:01:42.432Z,65.00
2023-03-26T01:04:28.427Z,52.80
2023-03-26T01:06:58.675Z,65.80
2023-03-26T01:09:33.159Z,63.20
2023-03-26T01:12:04.136Z,56.00
2023-03-26T01:14:32.315Z,62.00
2023-03-26T01:17:01.781Z,62.20
2023-03-26T01:19:34.156Z,58.00
2023-03-26T01:22:02.865Z,54.40
2023-03-26T01:24:32.738Z,57.40
2023-03-26T01:27:20.390Z,52.00
2023-03-26T01:29:54.858Z,53.75
2023-03-26T01:32:25.966Z,49.00
2023-03-26T01:35:00.169Z,49.00
2023-03-26T01:37:32.777Z,55.75
2023-03-26T01:40:07.162Z,56.00
2023-03-26T01:42:38.285Z,55.75
2023-03-26T01:45:10.685Z,47.50
2023-03-26T01:47:39.449Z,50.50
2023-03-26T01:50:08.365Z,42.20
2023-03-26T01:52:36.625Z,47.75
2023-03-26T01:55:11.882Z,51.25
2023-03-26T01:57:49.012Z,42.25
2023-03-26T02:00:21.000Z,41.75
2023-03-26T02:02:59.465Z,39.25
2023-03-26T02:05:30.708Z,45.00
2023-03-26T02:08:04.455Z,49.50
2023-03-26T02:10:36.902Z,43.00
2023-03-26T02:13:06.095Z,43.75
2023-03-26T02:15:34.343Z,42.25
2023-03-26T02:18:04.208Z,40.25
2023-03-26T02:20:32.282Z,38.50
2023-03-26T02:23:00.768Z,43.50
2023-03-26T02:25:29.926Z,44.50
2023-03-26T02:28:00.985Z,37.75
2023-03-26T02:30:30.390Z,45.50
2023-03-26T02:33:01.430Z,32.50
2023-03-26T02:35:38.651Z,36.25
2023-03-26T02:38:06.829Z,34.00
2023-03-26T02:40:35.329Z,39.50
2023-03-26T02:43:05.091Z,41.25
2023-03-26T02:45:34.526Z,44.75
2023-03-26T02:48:09.260Z,42.50
2023-03-26T02:50:50.450Z,44.40
2023-03-26T02:53:29.959Z,37.25
2023-03-26T02:56:17.138Z,37.50
2023-03-26T02:59:00.463Z,42.75
2023-03-26T03:01:31.012Z,44.60
2023-03-26T03:04:01.637Z,38.20
2023-03-26T03:06:38.396Z,46.00
2023-03-26T03:09:07.092Z,49.20
2023-03-26T03:11:39.573Z,35.50
2023-03-26T03:14:10.253Z,39.25
2023-03-26T03:16:39.485Z,50.00
2023-03-26T03:19:10.425Z,45.00
2023-03-26T03:21:40.050Z,48.25
2023-03-26T03:24:09.911Z,45.25
2023-03-26T03:26:45.804Z,43.20
2023-03-26T03:29:35.724Z,41.50
2023-03-26T03:32:23.965Z,39.75
2023-03-26T03:34:55.064Z,38.75
2023-03-26T03:37:23.618Z,37.50
2023-03-26T03:39:55.135Z,38.25
2023-03-26T03:42:27.564Z,49.50
2023-03-26T03:45:02.933Z,43.50
2023-03-26T03:47:55.826Z,39.50
2023-03-26T03:50:34.298Z,46.00
2023-03-26T03:53:29.628Z,31.25
2023-03-26T03:56:02.253Z,32.25
2023-03-26T03:58:53.508Z,49.20
2023-03-26T04:01:32.054Z,44.25
2023-03-26T04:04:06.118Z,47.00
2023-03-26T04:07:00.440Z,40.00
2023-03-26T04:09:36.042Z,46.00
2023-03-26T04:12:12.272Z,50.00
2023-03-26T04:14:48.568Z,52.50
2023-03-26T04:17:22.066Z,49.50
2023-03-26T04:19:53.094Z,41.50
2023-03-26T04:22:23.689Z,48.25
2023-03-26T04:24:56.940Z,32.00
2023-03-26T04:27:33.280Z,51.00
2023-03-26T04:30:17.428Z,43.75
2023-03-26T04:32:49.421Z,52.80
2023-03-26T04:35:18.561Z,50.80
2023-03-26T04:37:55.135Z,45.00
2023-03-26T04:40:37.873Z,44.60
2023-03-26T04:43:16.630Z,45.25
2023-03-26T04:45:54.454Z,42.00
2023-03-26T04:48:27.925Z,45.20
2023-03-26T04:50:57.467Z,44.50
2023-03-26T04:53:26.478Z,45.50
2023-03-26T04:56:18.554Z,36.00
2023-03-26T04:59:08.303Z,39.00
2023-03-26T05:01:42.161Z,40.00
2023-03-26T05:04:15.991Z,51.80
2023-03-26T05:06:47.317Z,43.50
2023-03-26T05:09:36.135Z,38.25
2023-03-26T05:12:19.121Z,46.50
2023-03-26T05:15:10.480Z,40.50
2023-03-26T05:18:02.565Z,53.25
2023-03-26T05:20:44.073Z,51.75
2023-03-26T05:23:15.765Z,52.75
2023-03-26T05:25:48.434Z,46.75
2023-03-26T05:28:20.893Z,44.00
2023-03-26T05:30:56.975Z,43.50
2023-03-26T05:33:28.268Z,51.75
2023-03-26T05:36:13.496Z,50.50
2023-03-26T05:38:47.497Z,50.25
2023-03-26T05:41:21.766Z,45.00
2023-03-26T05:43:51.757Z,42.00
2023-03-26T05:46:31.184Z,42.00
2023-03-26T05:48:59.751Z,44.60
2023-03-26T05:51:33.823Z,43.40
2023-03-26T05:54:22.427Z,43.25
2023-03-26T05:57:09.298Z,50.25
2023-03-26T06:00:34.283Z,42.75
2023-03-26T06:03:07.824Z,41.75
2023-03-26T06:06:02.985Z,32.50
2023-03-26T06:12:11.037Z,43.50
2023-03-26T06:17:57.912Z,43.75
2023-03-26T06:20:49.242Z,44.50
2023-03-26T06:23:39.620Z,35.75
2023-03-26T06:26:32.436Z,32.00
2023-03-26T06:29:34.164Z,27.25
2023-03-26T06:32:20.503Z,42.50
2023-03-26T06:35:01.210Z,35.75
2023-03-26T06:37:32.939Z,33.00
2023-03-26T06:40:05.937Z,40.50
2023-03-26T06:43:09.314Z,40.00
2023-03-26T06:45:56.797Z,39.25
2023-03-26T06:48:39.570Z,40.25
2023-03-26T06:51:55.245Z,45.60
2023-03-26T06:54:45.266Z,30.80
2023-03-26T06:57:38.205Z,36.50
2023-03-26T07:00:29.080Z,34.00
2023-03-26T07:03:20.500Z,33.75
2023-03-26T07:06:09.248Z,27.00
2023-03-26T07:09:00.615Z,28.50
2023-03-26T07:11:48.040Z,31.50
2023-03-26T07:14:38.551Z,33.50
2023-03-26T07:17:44.574Z,30.40
2023-03-26T07:20:37.837Z,24.50
2023-03-26T07:23:12.901Z,33.25
2023-03-26T07:26:00.383Z,33.75
2023-03-26T07:29:04.701Z,30.25
2023-03-26T07:32:24.434Z,32.00
2023-03-26T07:35:36.181Z,29.00
2023-03-26T07:38:38.333Z,27.75
2023-03-26T07:41:38.041Z,31.75
2023-03-26T07:44:54.750Z,29.00
2023-03-26T07:48:11.457Z,23.00
2023-03-26T07:51:42.924Z,28.75
2023-03-26T07:54:33.751Z,31.50
2023-03-26T07:57:48.773Z,21.00
2023-03-26T08:07:32.956Z,21.75
2023-03-26T08:13:41.476Z,29.50
2023-03-26T08:16:19.061Z,29.25
2023-03-26T08:19:00.379Z,32.25
2023-03-26T08:21:58.821Z,26.25
2023-03-26T08:24:39.657Z,21.25
2023-03-26T08:27:18.809Z,24.50
2023-03-26T08:29:55.154Z,30.25
2023-03-26T08:32:27.152Z,30.75
2023-03-26T08:35:16.845Z,30.00
2023-03-26T08:37:49.719Z,24.25
2023-03-26T08:40:28.786Z,28.75
2023-03-26T08:43:41.470Z,20.50
2023-03-26T08:46:33.981Z,21.25
2023-03-26T08:49:38.470Z,23.50
2023-03-26T08:52:35.873Z,19.00
2023-03-26T08:55:39.481Z,17.50
2023-03-26T08:58:23.329Z,19.50
2023-03-26T09:01:06.408Z,20.75
2023-03-26T09:03:48.468Z,14.25
2023-03-26T09:06:33.067Z,18.50
2023-03-26T09:09:19.862Z,15.50
2023-03-26T09:12:00.506Z,14.50
2023-03-26T09:14:58.434Z,18.25
2023-03-26T09:17:45.444Z,16.00
2023-03-26T09:20:39.864Z,19.00
2023-03-26T09:23:28.203Z,17.00
2023-03-26T09:26:05.107Z,15.00
2023-03-26T09:28:54.533Z,17.50
2023-03-26T09:31:37.599Z,10.25
2023-03-26T09:34:18.013Z,17.50
2023-03-26T09:36:55.768Z,26.50
2023-03-26T09:39:35.717Z,26.25
2023-03-26T09:42:09.862Z,19.00
2023-03-26T09:45:04.885Z,17.25
2023-03-26T09:47:59.682Z,12.00
2023-03-26T09:50:43.826Z,19.25
2023-03-26T09:53:30.431Z,13.75
2023-03-26T09:56:04.879Z,15.25
2023-03-26T09:58:44.755Z,23.00
2023-03-26T10:01:21.017Z,21.00
2023-03-26T10:03:56.979Z,24.00
2023-03-26T10:06:37.352Z,19.75
2023-03-26T10:09:20.676Z,14.00
2023-03-26T10:11:56.991Z,9.50
2023-03-26T10:14:29.101Z,20.75
2023-03-26T10:17:07.669Z,23.25
2023-03-26T10:19:51.344Z,20.00
2023-03-26T10:22:32.631Z,21.75
2023-03-26T10:25:07.317Z,21.75
2023-03-26T10:27:41.704Z,20.75
2023-03-26T10:30:37.634Z,24.50
2023-03-26T10:33:13.515Z,23.25
2023-03-26T10:35:47.025Z,23.00
2023-03-26T10:38:20.209Z,27.25
2023-03-26T10:40:56.732Z,27.00
2023-03-26T10:43:47.949Z,37.75
2023-03-26T10:46:37.728Z,32.25
2023-03-26T10:49:24.744Z,28.00
2023-03-26T10:51:56.816Z,34.50
2023-03-26T10:54:34.754Z,36.25
2023-03-26T10:57:07.739Z,35.75
2023-03-26T10:59:36.120Z,37.75
2023-03-26T11:02:30.348Z,44.50
2023-03-26T11:05:10.550Z,43.75
2023-03-26T11:07:42.378Z,44.25
2023-03-26T11:10:18.036Z,46.75
2023-03-26T11:12:49.339Z,56.00
2023-03-26T11:15:23.828Z,50.40
2023-03-26T11:17:57.767Z,47.80
2023-03-26T11:20:33.960Z,54.25
2023-03-26T11:23:12.484Z,59.25
2023-03-26T11:25:46.961Z,55.50
2023-03-26T11:28:20.628Z,59.80
2023-03-26T11:30:53.550Z,55.50
2023-03-26T11:33:25.255Z,55.25
2023-03-26T11:35:56.688Z,52.75
2023-03-26T11:38:29.578Z,61.80
2023-03-26T11:41:02.647Z,57.20
2023-03-26T11:43:52.750Z,63.75
2023-03-26T11:46:23.256Z,67.20
2023-03-26T11:48:54.855Z,65.00
2023-03-26T11:51:26.744Z,65.60
2023-03-26T11:53:59.218Z,58.00
2023-03-26T11:57:05.086Z,71.40
2023-03-26T11:59:55.707Z,64.80
2023-03-26T12:02:32.760Z,67.00
2023-03-26T12:05:15.442Z,69.60
2023-03-26T12:07:47.133Z,54.60
2023-03-26T12:10:23.870Z,70.00
2023-03-26T12:12:58.461Z,63.80
2023-03-26T12:15:34.344Z,78.60
2023-03-26T12:18:21.161Z,74.00
2023-03-26T12:20:50.927Z,66.80
2023-03-26T12:23:34.052Z,71.40
2023-03-26T12:26:07.546Z,73.40
2023-03-26T12:28:39.427Z,72.20
2023-03-26T12:31:09.719Z,73.20
2023-03-26T12:33:39.273Z,71.40
2023-03-26T12:36:18.907Z,73.60
2023-03-26T12:39:16.954Z,75.00
2023-03-26T12:43:19.790Z,63.60
2023-03-26T12:44:55.848Z,68.20
2023-03-26T12:48:00.104Z,72.20
2023-03-26T12:50:14.762Z,77.80
2023-03-26T12:53:04.076Z,65.80
2023-03-26T12:55:42.574Z,72.00
2023-03-26T12:58:34.726Z,67.00
2023-03-26T13:01:09.356Z,68.40
2023-03-26T13:03:42.605Z,71.20
2023-03-26T13:06:21.988Z,66.60
2023-03-26T13:09:03.732Z,70.60
2023-03-26T13:11:35.903Z,73.00
2023-03-26T13:14:16.665Z,66.80
2023-03-26T13:16:53.070Z,69.00
2023-03-26T13:19:24.171Z,62.60
2023-03-26T13:21:58.179Z,64.80
2023-03-26T13:24:40.966Z,72.00
2023-03-26T13:27:18.321Z,67.80
2023-03-26T13:29:56.800Z,65.80
2023-03-26T13:32:31.232Z,78.20
2023-03-26T13:35:09.848Z,65.60
2023-03-26T13:37:40.060Z,65.00
2023-03-26T13:40:17.716Z,66.80
2023-03-26T13:42:52.789Z,69.40
2023-03-26T13:45:39.217Z,66.40
2023-03-26T13:48:36.200Z,64.00
2023-03-26T13:51:08.795Z,55.20
2023-03-26T13:53:43.994Z,56.80
2023-03-26T13:56:35.818Z,62.60
2023-03-26T13:59:07.961Z,59.60
2023-03-26T14:01:44.098Z,66.20
2023-03-26T14:04:20.213Z,60.40
2023-03-26T14:06:57.813Z,61.80
2023-03-26T14:09:58.615Z,61.60
2023-03-26T14:12:49.989Z,53.20
2023-03-26T14:15:38.562Z,48.00
2023-03-26T14:18:17.932Z,64.20
2023-03-26T14:21:05.386Z,45.00
2023-03-26T14:24:02.452Z,50.50
2023-03-26T14:26:44.363Z,52.20
2023-03-26T14:30:05.432Z,44.60
2023-03-26T14:32:49.876Z,52.80
2023-03-26T14:35:26.494Z,49.80
2023-03-26T14:38:09.328Z,49.20
2023-03-26T14:40:51.112Z,46.75
2023-03-26T14:43:36.418Z,54.20
2023-03-26T14:46:20.656Z,52.40
2023-03-26T14:49:11.705Z,47.25
2023-03-26T14:51:50.105Z,54.50
2023-03-26T14:54:27.405Z,48.75
2023-03-26T14:57:24.261Z,58.50
2023-03-26T15:00:18.942Z,40.50
2023-03-26T15:03:12.894Z,54.40
2023-03-26T15:06:09.851Z,46.50
2023-03-26T15:09:05.957Z,50.25
2023-03-26T15:12:13.136Z,48.60
2023-03-26T15:15:20.020Z,50.75
2023-03-26T15:18:12.115Z,52.80
2023-03-26T15:20:57.337Z,54.40
2023-03-26T15:23:40.472Z,59.80
2023-03-26T15:26:30.967Z,55.25
2023-03-26T15:29:05.791Z,45.60
2023-03-26T15:31:50.627Z,55.40
2023-03-26T15:34:38.636Z,53.00
2023-03-26T15:37:27.029Z,48.60
2023-03-26T15:40:13.317Z,49.40
2023-03-26T15:42:55.084Z,49.60
2023-03-26T15:45:32.540Z,47.80
2023-03-26T15:48:13.960Z,51.20
2023-03-26T15:50:51.300Z,49.80
2023-03-26T15:53:25.078Z,46.50
2023-03-26T15:56:02.541Z,57.80
2023-03-26T15:58:38.672Z,51.25
2023-03-26T16:01:19.408Z,47.20
2023-03-26T16:03:55.652Z,46.80
2023-03-26T16:06:31.372Z,59.60
2023-03-26T16:09:15.133Z,43.80
2023-03-26T16:12:01.195Z,44.25
2023-03-26T16:14:43.135Z,49.50
2023-03-26T16:17:14.787Z,45.75
2023-03-26T16:19:52.348Z,41.25
2023-03-26T16:22:55.127Z,47.50
2023-03-26T16:25:28.932Z,29.25
2023-03-26T16:28:17.280Z,40.75
2023-03-26T16:30:48.424Z,52.20
2023-03-26T16:33:18.483Z,45.75
2023-03-26T16:36:03.477Z,52.80
2023-03-26T16:38:50.383Z,32.75
2023-03-26T16:41:20.402Z,49.20
2023-03-26T16:43:54.582Z,51.00
2023-03-26T16:46:41.410Z,35.25
2023-03-26T16:49:21.347Z,37.75
2023-03-26T16:52:10.685Z,60.00
2023-03-26T16:54:46.142Z,46.25
2023-03-26T16:57:25.385Z,33.25
2023-03-26T17:00:08.802Z,43.00
2023-03-26T17:02:49.686Z,39.75
2023-03-26T17:05:21.284Z,36.00
2023-03-26T17:07:56.524Z,39.00
2023-03-26T17:10:32.731Z,41.75
2023-03-26T17:13:05.671Z,54.00
2023-03-26T17:15:41.300Z,46.00
2023-03-26T17:18:18.939Z,40.00
2023-03-26T17:20:59.163Z,39.50
2023-03-26T17:23:33.488Z,41.75
2023-03-26T17:26:11.830Z,43.00
2023-03-26T17:29:17.265Z,48.50
2023-03-26T17:31:52.468Z,47.50
2023-03-26T17:34:34.978Z,41.00
2023-03-26T17:37:06.210Z,42.25
2023-03-26T17:40:12.567Z,38.75
2023-03-26T17:43:02.712Z,39.25
2023-03-26T17:45:33.983Z,45.75
2023-03-26T17:48:06.685Z,39.25
2023-03-26T17:50:37.141Z,44.50
2023-03-26T17:53:07.752Z,39.75
2023-03-26T17:55:46.348Z,47.00
2023-03-26T17:58:30.865Z,37.50
2023-03-26T18:01:05.450Z,45.25
2023-03-26T18:03:36.157Z,43.00
2023-03-26T18:06:08.707Z,38.75
2023-03-26T18:08:43.748Z,39.75
2023-03-26T18:11:36.288Z,44.25
2023-03-26T18:14:22.009Z,38.50
2023-03-26T18:16:53.102Z,47.00
2023-03-26T18:19:23.058Z,43.75
2023-03-26T18:21:53.036Z,43.00
2023-03-26T18:24:24.619Z,42.50
2023-03-26T18:26:55.642Z,41.00
2023-03-26T18:29:25.208Z,43.75
2023-03-26T18:32:00.723Z,51.50
2023-03-26T18:34:30.992Z,49.00
2023-03-26T18:37:02.384Z,36.75
2023-03-26T18:39:30.799Z,45.00
2023-03-26T18:41:59.363Z,57.75
2023-03-26T18:44:27.593Z,51.50
2023-03-26T18:46:56.479Z,46.50
2023-03-26T18:49:29.906Z,50.75
2023-03-26T18:51:58.163Z,42.50
2023-03-26T18:54:29.982Z,45.75
2023-03-26T18:56:59.006Z,48.75
2023-03-26T18:59:29.204Z,46.75
2023-03-26T19:01:58.909Z,56.40
2023-03-26T19:04:31.108Z,72.60
2023-03-26T19:06:59.417Z,58.20
2023-03-26T19:09:32.014Z,57.00
2023-03-26T19:12:06.200Z,59.60
2023-03-26T19:14:37.141Z,52.75
2023-03-26T19:17:08.267Z,48.25
2023-03-26T19:19:39.392Z,46.75
2023-03-26T19:22:08.846Z,52.00
2023-03-26T19:24:37.255Z,39.50
2023-03-26T19:27:06.136Z,35.00
2023-03-26T19:29:35.370Z,35.25
2023-03-26T19:32:04.280Z,49.25
2023-03-26T19:34:33.680Z,66.20
2023-03-26T19:37:04.521Z,70.40
2023-03-26T19:39:41.777Z,66.60
2023-03-26T19:42:14.725Z,65.40
2023-03-26T19:44:43.903Z,45.20
2023-03-26T19:47:17.387Z,50.50
2023-03-26T19:49:50.295Z,38.25
2023-03-26T19:52:23.128Z,43.00
2023-03-26T19:54:59.629Z,43.50
2023-03-26T19:57:29.205Z,35.75
2023-03-26T19:59:58.575Z,36.50
2023-03-26T20:02:27.981Z,39.50
2023-03-26T20:04:56.276Z,32.50
2023-03-26T20:07:34.898Z,35.25
2023-03-26T20:10:08.514Z,35.50
2023-03-26T20:12:37.464Z,35.25
2023-03-26T20:15:19.228Z,41.75
2023-03-26T20:17:50.293Z,36.75
2023-03-26T20:20:18.794Z,37.25
2023-03-26T20:22:49.721Z,47.50
2023-03-26T20:25:26.784Z,41.50
2023-03-26T20:27:58.650Z,46.50
2023-03-26T20:30:37.323Z,50.00
2023-03-26T20:33:12.143Z,48.00
2023-03-26T20:35:43.428Z,45.80
2023-03-26T20:38:14.135Z,42.75
2023-03-26T20:40:42.804Z,55.00
2023-03-26T20:43:13.095Z,56.60
2023-03-26T20:45:41.943Z,47.50
2023-03-26T20:48:12.045Z,44.75
2023-03-26T20:50:50.457Z,33.75
2023-03-26T20:53:20.971Z,36.25
2023-03-26T20:55:51.411Z,42.75
2023-03-26T20:58:31.887Z,39.50
2023-03-26T21:01:01.852Z,49.00
2023-03-26T21:03:30.432Z,52.50
2023-03-26T21:06:01.062Z,50.40
2023-03-26T21:08:40.125Z,55.00
2023-03-26T21:11:16.049Z,58.00
2023-03-26T21:13:59.616Z,59.80
2023-03-26T21:16:28.297Z,65.40
2023-03-26T21:18:56.741Z,59.00
2023-03-26T21:21:33.058Z,51.00
2023-03-26T21:24:08.625Z,55.40
2023-03-26T21:26:42.961Z,55.60
2023-03-26T21:29:11.996Z,51.50
2023-03-26T21:31:40.656Z,56.80
2023-03-26T21:34:09.792Z,52.00
2023-03-26T21:36:38.262Z,30.25
2023-03-26T21:39:08.480Z,46.00
2023-03-26T21:41:41.725Z,34.00
2023-03-26T21:44:09.997Z,31.50
2023-03-26T21:46:38.443Z,28.50
2023-03-26T21:49:06.874Z,25.50
2023-03-26T21:51:35.560Z,23.00
2023-03-26T21:54:03.930Z,25.50
2023-03-26T21:56:41.556Z,21.50
2023-03-26T21:59:13.768Z,31.75
2023-03-26T22:01:46.716Z,22.25
2023-03-26T22:04:17.177Z,32.75
2023-03-26T22:06:49.165Z,23.00
2023-03-26T22:09:23.353Z,29.50
2023-03-26T22:11:56.364Z,37.25
2023-03-26T22:14:25.930Z,40.00
2023-03-26T22:16:54.043Z,35.50
2023-03-26T22:19:22.212Z,34.60
2023-03-26T22:21:51.794Z,45.25
2023-03-26T22:24:19.918Z,28.75
2023-03-26T22:26:48.596Z,34.00
2023-03-26T22:29:18.265Z,31.25
2023-03-26T22:31:46.811Z,38.75
2023-03-26T22:34:15.141Z,39.25
2023-03-26T22:36:43.400Z,34.00
2023-03-26T22:39:12.413Z,21.25
2023-03-26T22:41:40.567Z,47.25
2023-03-26T22:44:19.803Z,31.50
2023-03-26T22:46:51.732Z,40.20
2023-03-26T22:49:20.082Z,47.80
2023-03-26T22:51:50.419Z,27.75
2023-03-26T22:54:18.661Z,37.80
2023-03-26T22:56:47.109Z,35.50
2023-03-26T22:59:15.488Z,19.00
2023-03-26T23:01:44.408Z,30.50
2023-03-26T23:04:31.121Z,30.25
2023-03-26T23:07:00.099Z,17.50
2023-03-26T23:09:28.495Z,20.00
2023-03-26T23:11:57.218Z,26.25
2023-03-26T23:14:25.512Z,28.50
2023-03-26T23:16:53.604Z,27.75
2023-03-26T23:19:23.107Z,28.00
2023-03-26T23:21:52.502Z,26.25
2023-03-26T23:24:20.755Z,21.75
2023-03-26T23:26:51.172Z,31.00
2023-03-26T23:29:19.749Z,15.50
2023-03-26T23:31:48.439Z,14.75
2023-03-26T23:34:17.267Z,10.50
2023-03-26T23:36:47.234Z,3.50
2023-03-26T23:39:16.071Z,14.50
2023-03-26T23:41:44.222Z,11.00
2023-03-26T23:44:14.680Z,11.75
2023-03-26T23:46:42.896Z,9.75
2023-03-26T23:49:12.399Z,12.75
2023-03-26T23:51:40.732Z,18.50
2023-03-26T23:54:11.762Z,14.50
2023-03-26T23:56:40.148Z,14.25
2023-03-26T23:59:08.679Z,20.00
